createdAt,value
2022-08-05T00:00:00.612Z,95284.75
2022-08-05T00:02:28.644Z,95284.47
2022-08-05T00:04:58.315Z,95283.13
2022-08-05T00:07:59.663Z,95280.72
2022-08-05T00:10:14.417Z,95281.25
2022-08-05T00:12:55.652Z,95282.63
2022-08-05T00:15:57.656Z,95282.63
2022-08-05T00:18:21.654Z,95283.13
2022-08-05T00:20:50.686Z,95275.34
2022-08-05T00:23:44.415Z,95274.53
2022-08-05T00:26:07.431Z,95272.91
2022-08-05T00:28:38.416Z,95265.41
2022-08-05T00:31:08.948Z,95272.13
2022-08-05T00:34:54.676Z,95271.84
2022-08-05T00:37:13.024Z,95263.22
2022-08-05T00:39:15.039Z,95265.09
2022-08-05T00:41:55.141Z,95263.22
2022-08-05T00:44:30.575Z,95263.22
2022-08-05T00:47:02.139Z,95261.34
2022-08-05T00:49:32.695Z,95260.97
2022-08-05T00:52:01.023Z,95273.19
2022-08-05T00:54:30.212Z,95272.53
2022-08-05T00:56:58.464Z,95267.75
2022-08-05T00:59:27.467Z,95267.47
2022-08-05T01:02:12.031Z,95265.59
2022-08-05T01:04:42.190Z,95262.91
2022-08-05T01:07:13.734Z,95271.50
2022-08-05T01:09:42.380Z,95277.41
2022-08-05T01:12:18.597Z,95265.34
2022-08-05T01:14:52.873Z,95270.50
2022-08-05T01:17:27.809Z,95268.34
2022-08-05T01:20:07.272Z,95269.97
2022-08-05T01:22:47.166Z,95273.16
2022-08-05T01:25:53.519Z,95266.19
2022-08-05T01:28:32.378Z,95270.75
2022-08-05T01:31:03.503Z,95271.03
2022-08-05T01:33:35.981Z,95270.22
2022-08-05T01:36:13.126Z,95270.97
2022-08-05T01:38:48.505Z,95277.41
2022-08-05T01:41:21.864Z,95272.59
2022-08-05T01:43:53.300Z,95270.44
2022-08-05T01:46:42.238Z,95281.16
2022-08-05T01:49:24.299Z,95275.47
2022-08-05T01:51:58.453Z,95280.56
2022-08-05T01:54:31.047Z,95278.94
2022-08-05T01:58:10.981Z,95276.47
2022-08-05T01:59:53.693Z,95275.63
2022-08-05T02:02:28.135Z,95279.91
2022-08-05T02:05:01.502Z,95278.53
2022-08-05T02:07:33.657Z,95280.91
2022-08-05T02:10:03.205Z,95276.88
2022-08-05T02:12:37.278Z,95286.72
2022-08-05T02:15:12.505Z,95281.72
2022-08-05T02:18:27.964Z,95290.56
2022-08-05T02:20:44.649Z,95282.22
2022-08-05T02:23:19.635Z,95284.75
2022-08-05T02:25:50.701Z,95282.34
2022-08-05T02:28:28.843Z,95285.28
2022-08-05T02:31:07.690Z,95283.09
2022-08-05T02:33:48.534Z,95285.72
2022-08-05T02:36:20.383Z,95284.72
2022-08-05T02:38:53.215Z,95292.78
2022-08-05T02:41:28.611Z,95281.00
2022-08-05T02:44:11.283Z,95297.00
2022-08-05T02:46:58.836Z,95290.53
2022-08-05T02:49:35.974Z,95280.09
2022-08-05T02:52:09.104Z,95275.53
2022-08-05T02:54:41.605Z,95279.25
2022-08-05T02:58:12.160Z,95283.56
2022-08-05T03:00:03.149Z,95270.69
2022-08-05T03:02:36.333Z,95277.47
2022-08-05T03:05:06.029Z,95270.03
2022-08-05T03:08:00.116Z,95269.78
2022-08-05T03:10:25.137Z,95281.03
2022-08-05T03:12:53.847Z,95279.19
2022-08-05T03:15:23.711Z,95287.34
2022-08-05T03:17:57.611Z,95284.13
2022-08-05T03:20:26.354Z,95280.56
2022-08-05T03:22:57.964Z,95285.66
2022-08-05T03:25:32.710Z,95289.72
2022-08-05T03:28:03.398Z,95292.97
2022-08-05T03:30:34.102Z,95305.84
2022-08-05T03:33:07.600Z,95294.88
2022-08-05T03:35:41.013Z,95299.28
2022-08-05T03:38:12.153Z,95303.88
2022-08-05T03:40:41.716Z,95303.81
2022-08-05T03:43:59.131Z,95308.91
2022-08-05T03:46:02.362Z,95307.25
2022-08-05T03:48:35.221Z,95307.94
2022-08-05T03:52:49.027Z,95312.16
2022-08-05T03:55:53.358Z,95309.88
2022-08-05T03:56:58.933Z,95322.19
2022-08-05T03:59:46.947Z,95308.31
2022-08-05T04:02:17.575Z,95303.41
2022-08-05T04:05:09.743Z,95303.44
2022-08-05T04:07:53.559Z,95315.09
2022-08-05T04:10:28.177Z,95320.25
2022-08-05T04:12:59.626Z,95313.75
2022-08-05T04:15:32.793Z,95316.81
2022-08-05T04:18:03.042Z,95310.19
2022-08-05T04:20:32.120Z,95311.00
2022-08-05T04:23:01.283Z,95313.88
2022-08-05T04:25:57.403Z,95312.41
2022-08-05T04:28:17.121Z,95308.44
2022-08-05T04:30:45.134Z,95319.22
2022-08-05T04:33:14.126Z,95327.56
2022-08-05T04:36:09.525Z,95314.56
2022-08-05T04:38:39.487Z,95313.44
2022-08-05T04:41:10.158Z,95312.81
2022-08-05T04:43:40.681Z,95307.41
2022-08-05T04:46:28.491Z,95322.47
2022-08-05T04:48:58.770Z,95317.84
2022-08-05T04:51:30.591Z,95321.03
2022-08-05T04:53:58.722Z,95335.88
2022-08-05T04:56:34.390Z,95331.06
2022-08-05T04:59:17.464Z,95335.34
2022-08-05T05:02:07.982Z,95335.28
2022-08-05T05:04:43.846Z,95336.22
2022-08-05T05:07:21.174Z,95344.13
2022-08-05T05:09:52.092Z,95345.66
2022-08-05T05:12:22.213Z,95354.03
2022-08-05T05:14:51.313Z,95353.00
2022-08-05T05:17:23.957Z,95344.78
2022-08-05T05:19:54.841Z,95354.59
2022-08-05T05:22:26.333Z,95355.66
2022-08-05T05:24:56.788Z,95356.69
2022-08-05T05:27:41.527Z,95360.69
2022-08-05T05:30:15.491Z,95365.38
2022-08-05T05:32:56.618Z,95369.81
2022-08-05T05:35:25.092Z,95369.91
2022-08-05T05:37:59.771Z,95362.81
2022-08-05T05:40:31.451Z,95358.09
2022-08-05T05:43:00.777Z,95361.28
2022-08-05T05:45:30.445Z,95365.66
2022-08-05T05:48:06.781Z,95369.84
2022-08-05T05:50:44.062Z,95372.53
2022-08-05T05:53:20.764Z,95380.50
2022-08-05T05:55:51.619Z,95385.22
2022-08-05T05:58:30.236Z,95382.63
2022-08-05T06:01:04.874Z,95391.34
2022-08-05T06:04:00.961Z,95387.28
2022-08-05T06:06:31.072Z,95389.09
2022-08-05T06:09:03.856Z,95389.94
2022-08-05T06:11:31.988Z,95377.78
2022-08-05T06:14:00.673Z,95375.88
2022-08-05T06:16:36.790Z,95375.31
2022-08-05T06:19:07.293Z,95382.72
2022-08-05T06:21:38.033Z,95380.84
2022-08-05T06:24:11.969Z,95377.78
2022-08-05T06:26:51.328Z,95388.00
2022-08-05T06:29:42.861Z,95385.50
2022-08-05T06:32:20.912Z,95375.09
2022-08-05T06:34:56.104Z,95387.50
2022-08-05T06:37:57.526Z,95400.50
2022-08-05T06:40:18.581Z,95421.84
2022-08-05T06:42:52.147Z,95441.31
2022-08-05T06:45:43.947Z,95455.66
2022-08-05T06:48:47.245Z,95462.72
2022-08-05T06:51:00.179Z,95469.75
2022-08-05T06:53:29.147Z,95477.75
2022-08-05T06:56:03.427Z,95479.97
2022-08-05T06:58:36.535Z,95483.91
2022-08-05T07:01:06.908Z,95477.44
2022-08-05T07:03:35.529Z,95479.56
2022-08-05T07:06:05.946Z,95493.19
2022-08-05T07:08:42.824Z,95495.59
2022-08-05T07:11:15.071Z,95491.03
2022-08-05T07:14:01.102Z,95502.81
2022-08-05T07:18:02.279Z,95519.59
2022-08-05T07:22:28.154Z,95527.50
2022-08-05T07:24:58.259Z,95534.13
2022-08-05T07:27:57.304Z,95544.03
2022-08-05T07:30:24.008Z,95542.16
2022-08-05T07:32:56.166Z,95540.50
2022-08-05T07:36:03.942Z,95545.69
2022-08-05T07:38:32.850Z,95545.34
2022-08-05T07:41:16.757Z,95545.47
2022-08-05T07:43:51.755Z,95547.69
2022-08-05T07:46:25.080Z,95539.00
2022-08-05T07:49:02.006Z,95541.19
2022-08-05T07:51:40.373Z,95549.72
2022-08-05T07:54:16.221Z,95553.31
2022-08-05T07:57:01.973Z,95544.94
2022-08-05T07:59:39.800Z,95560.09
2022-08-05T08:02:16.168Z,95561.50
2022-08-05T08:04:45.871Z,95562.81
2022-08-05T08:07:15.205Z,95557.47
2022-08-05T08:09:52.273Z,95575.69
2022-08-05T08:12:37.283Z,95572.78
2022-08-05T08:15:15.424Z,95571.66
2022-08-05T08:17:46.053Z,95575.94
2022-08-05T08:20:43.194Z,95576.59
2022-08-05T08:23:08.012Z,95574.97
2022-08-05T08:26:00.870Z,95581.66
2022-08-05T08:28:36.746Z,95586.00
2022-08-05T08:31:15.101Z,95581.81
2022-08-05T08:33:45.604Z,95575.75
2022-08-05T08:36:52.510Z,95582.19
2022-08-05T08:39:02.557Z,95583.72
2022-08-05T08:41:51.873Z,95581.03
2022-08-05T08:45:16.625Z,95584.22
2022-08-05T08:47:21.944Z,95581.25
2022-08-05T08:50:30.710Z,95582.16
2022-08-05T08:52:55.886Z,95580.31
2022-08-05T08:56:02.703Z,95590.00
2022-08-05T08:58:13.293Z,95590.84
2022-08-05T09:00:43.219Z,95598.31
2022-08-05T09:03:16.088Z,95595.47
2022-08-05T09:06:07.746Z,95600.03
2022-08-05T09:08:40.320Z,95603.75
2022-08-05T09:11:12.119Z,95612.28
2022-08-05T09:14:10.344Z,95613.09
2022-08-05T09:16:31.917Z,95612.69
2022-08-05T09:19:01.028Z,95610.56
2022-08-05T09:22:22.531Z,95615.31
2022-08-05T09:24:24.265Z,95617.56
2022-08-05T09:26:57.067Z,95617.16
2022-08-05T09:29:47.501Z,95622.78
2022-08-05T09:32:51.333Z,95611.38
2022-08-05T09:35:11.581Z,95618.91
2022-08-05T09:38:16.513Z,95621.00
2022-08-05T09:40:52.279Z,95618.28
2022-08-05T09:43:40.951Z,95623.66
2022-08-05T09:46:27.798Z,95610.72
2022-08-05T09:49:06.822Z,95610.09
2022-08-05T09:51:39.975Z,95604.47
2022-08-05T09:54:09.575Z,95596.69
2022-08-05T09:56:39.374Z,95599.72
2022-08-05T09:59:09.446Z,95598.38
2022-08-05T10:01:45.750Z,95588.50
2022-08-05T10:04:17.503Z,95593.81
2022-08-05T10:06:58.949Z,95591.88
2022-08-05T10:09:29.541Z,95592.69
2022-08-05T10:12:30.436Z,95595.47
2022-08-05T10:15:16.440Z,95591.63
2022-08-05T10:17:56.631Z,95589.03
2022-08-05T10:20:26.599Z,95582.25
2022-08-05T10:22:58.456Z,95581.97
2022-08-05T10:25:26.474Z,95584.66
2022-08-05T10:28:13.290Z,95577.72
2022-08-05T10:32:50.604Z,95578.03
2022-08-05T10:33:35.092Z,95575.94
2022-08-05T10:36:04.918Z,95571.97
2022-08-05T10:38:36.032Z,95579.22
2022-08-05T10:41:13.677Z,95567.88
2022-08-05T10:43:50.145Z,95567.59
2022-08-05T10:46:23.984Z,95567.31
2022-08-05T10:49:00.508Z,95572.31
2022-08-05T10:51:48.670Z,95572.72
2022-08-05T10:54:56.232Z,95560.25
2022-08-05T10:57:29.693Z,95552.25
2022-08-05T11:00:18.162Z,95566.66
2022-08-05T11:03:24.676Z,95556.94
2022-08-05T11:06:05.529Z,95552.34
2022-08-05T11:08:37.158Z,95553.75
2022-08-05T11:11:52.403Z,95549.53
2022-08-05T11:14:49.421Z,95561.59
2022-08-05T11:17:57.418Z,95544.00
2022-08-05T11:20:41.585Z,95546.47
2022-08-05T11:24:03.952Z,95544.78
2022-08-05T11:26:32.199Z,95539.38
2022-08-05T11:29:06.926Z,95548.81
2022-08-05T11:31:58.376Z,95540.97
2022-08-05T11:34:51.709Z,95545.59
2022-08-05T11:38:30.406Z,95538.97
2022-08-05T11:41:12.829Z,95532.56
2022-08-05T11:44:04.699Z,95530.84
2022-08-05T11:46:58.366Z,95537.38
2022-08-05T11:49:26.620Z,95530.03
2022-08-05T11:51:57.580Z,95535.53
2022-08-05T11:54:33.113Z,95527.75
2022-08-05T11:57:08.482Z,95521.91
2022-08-05T11:59:52.542Z,95525.81
2022-08-05T12:02:31.154Z,95524.53
2022-08-05T12:05:08.191Z,95525.59
2022-08-05T12:08:08.133Z,95527.34
2022-08-05T12:10:45.550Z,95530.06
2022-08-05T12:13:28.345Z,95523.66
2022-08-05T12:16:15.484Z,95519.31
2022-08-05T12:18:52.316Z,95512.25
2022-08-05T12:21:24.244Z,95502.63
2022-08-05T12:24:04.505Z,95508.97
2022-08-05T12:26:34.236Z,95505.00
2022-08-05T12:29:03.194Z,95516.66
2022-08-05T12:31:44.908Z,95500.66
2022-08-05T12:34:21.269Z,95510.56
2022-08-05T12:36:53.245Z,95500.56
2022-08-05T12:39:21.433Z,95489.69
2022-08-05T12:41:49.221Z,95489.03
2022-08-05T12:44:33.259Z,95498.66
2022-08-05T12:47:03.789Z,95487.69
2022-08-05T12:50:04.197Z,95494.88
2022-08-05T12:52:39.247Z,95482.22
2022-08-05T12:55:23.603Z,95480.09
2022-08-05T12:58:51.004Z,95485.56
2022-08-05T13:02:00.355Z,95480.38
2022-08-05T13:03:42.526Z,95476.16
2022-08-05T13:06:18.135Z,95466.59
2022-08-05T13:08:52.027Z,95462.53
2022-08-05T13:11:25.429Z,95463.53
2022-08-05T13:14:19.864Z,95457.69
2022-08-05T13:16:54.099Z,95454.09
2022-08-05T13:19:25.927Z,95462.75
2022-08-05T13:21:56.737Z,95450.06
2022-08-05T13:24:27.546Z,95460.44
2022-08-05T13:27:17.148Z,95458.31
2022-08-05T13:30:31.668Z,95445.22
2022-08-05T13:32:42.266Z,95451.94
2022-08-05T13:35:15.316Z,95436.31
2022-08-05T13:37:55.586Z,95431.09
2022-08-05T13:40:36.801Z,95438.25
2022-08-05T13:43:12.082Z,95436.84
2022-08-05T13:45:43.282Z,95437.75
2022-08-05T13:48:58.870Z,95432.97
2022-08-05T13:51:06.690Z,95437.72
2022-08-05T13:53:47.969Z,95437.91
2022-08-05T13:56:18.206Z,95434.34
2022-08-05T13:58:52.983Z,95424.00
2022-08-05T14:01:27.358Z,95432.66
2022-08-05T14:04:26.960Z,95431.44
2022-08-05T14:07:11.901Z,95437.25
2022-08-05T14:09:46.525Z,95429.19
2022-08-05T14:12:18.328Z,95434.88
2022-08-05T14:15:01.404Z,95433.78
2022-08-05T14:17:49.228Z,95430.91
2022-08-05T14:20:18.403Z,95424.97
2022-08-05T14:22:49.936Z,95424.88
2022-08-05T14:25:22.512Z,95421.69
2022-08-05T14:27:55.702Z,95418.69
2022-08-05T14:30:26.701Z,95419.31
2022-08-05T14:32:56.907Z,95418.25
2022-08-05T14:35:37.111Z,95406.28
2022-08-05T14:38:33.126Z,95402.16
2022-08-05T14:41:06.335Z,95387.31
2022-08-05T14:43:59.160Z,95389.97
2022-08-05T14:46:28.124Z,95386.63
2022-08-05T14:48:57.890Z,95388.06
2022-08-05T14:51:30.895Z,95383.50
2022-08-05T14:54:26.319Z,95379.34
2022-08-05T14:56:47.969Z,95374.25
2022-08-05T14:59:16.405Z,95368.72
2022-08-05T15:01:48.055Z,95370.72
2022-08-05T15:04:17.162Z,95371.94
2022-08-05T15:06:49.219Z,95372.63
2022-08-05T15:09:50.511Z,95367.34
2022-08-05T15:12:08.971Z,95360.00
2022-08-05T15:14:42.205Z,95362.00
2022-08-05T15:17:46.222Z,95358.84
2022-08-05T15:20:05.897Z,95361.38
2022-08-05T15:22:33.641Z,95354.06
2022-08-05T15:25:14.121Z,95358.22
2022-08-05T15:27:51.975Z,95359.50
2022-08-05T15:30:20.350Z,95359.72
2022-08-05T15:32:50.234Z,95364.50
2022-08-05T15:35:18.706Z,95368.94
2022-08-05T15:38:32.421Z,95379.41
2022-08-05T15:41:03.178Z,95381.25
2022-08-05T15:43:26.936Z,95390.53
2022-08-05T15:45:59.765Z,95389.63
2022-08-05T15:48:28.894Z,95393.63
2022-08-05T15:51:03.326Z,95394.78
2022-08-05T15:53:38.375Z,95400.59
2022-08-05T15:56:19.218Z,95400.47
2022-08-05T15:58:48.923Z,95396.41
2022-08-05T16:01:18.667Z,95394.13
2022-08-05T16:03:48.524Z,95398.88
2022-08-05T16:06:20.222Z,95401.41
2022-08-05T16:08:51.084Z,95400.03
2022-08-05T16:11:42.469Z,95393.94
2022-08-05T16:14:10.218Z,95394.56
2022-08-05T16:16:46.115Z,95391.66
2022-08-05T16:19:25.838Z,95383.63
2022-08-05T16:22:03.008Z,95392.69
2022-08-05T16:24:41.191Z,95395.63
2022-08-05T16:27:19.223Z,95383.75
2022-08-05T16:30:01.382Z,95395.16
2022-08-05T16:32:29.934Z,95399.13
2022-08-05T16:34:58.864Z,95395.50
2022-08-05T16:38:13.696Z,95396.69
2022-08-05T16:40:29.229Z,95394.50
2022-08-05T16:42:58.070Z,95400.19
2022-08-05T16:46:04.125Z,95402.69
2022-08-05T16:48:25.483Z,95400.34
2022-08-05T16:50:54.260Z,95389.63
2022-08-05T16:53:32.553Z,95399.78
2022-08-05T16:56:11.724Z,95393.38
2022-08-05T16:58:40.731Z,95388.25
2022-08-05T17:01:10.808Z,95388.28
2022-08-05T17:03:38.866Z,95391.84
2022-08-05T17:06:07.718Z,95394.97
2022-08-05T17:08:52.264Z,95387.59
2022-08-05T17:11:23.523Z,95399.16
2022-08-05T17:14:00.504Z,95404.81
2022-08-05T17:16:37.086Z,95404.78
2022-08-05T17:19:07.785Z,95399.66
2022-08-05T17:21:39.617Z,95398.22
2022-08-05T17:24:19.411Z,95393.56
2022-08-05T17:26:58.340Z,95398.53
2022-08-05T17:29:33.250Z,95395.16
2022-08-05T17:32:03.451Z,95402.38
2022-08-05T17:34:34.789Z,95397.47
2022-08-05T17:37:04.595Z,95396.38
2022-08-05T17:39:33.965Z,95404.19
2022-08-05T17:42:20.355Z,95406.72
2022-08-05T17:44:51.595Z,95410.09
2022-08-05T17:47:22.177Z,95403.84
2022-08-05T17:49:52.095Z,95414.56
2022-08-05T17:52:29.141Z,95419.50
2022-08-05T17:54:56.990Z,95418.06
2022-08-05T17:57:24.992Z,95427.94
2022-08-05T18:00:04.982Z,95424.09
2022-08-05T18:02:35.225Z,95432.56
2022-08-05T18:05:06.918Z,95432.69
2022-08-05T18:07:42.035Z,95429.91
2022-08-05T18:10:11.581Z,95427.63
2022-08-05T18:12:41.856Z,95434.31
2022-08-05T18:15:10.811Z,95433.44
2022-08-05T18:17:58.855Z,95431.50
2022-08-05T18:20:31.541Z,95444.25
2022-08-05T18:23:09.509Z,95434.06
2022-08-05T18:25:44.977Z,95440.09
2022-08-05T18:28:16.437Z,95450.91
2022-08-05T18:30:45.348Z,95462.03
2022-08-05T18:33:14.779Z,95455.41
2022-08-05T18:36:01.154Z,95461.88
2022-08-05T18:38:54.159Z,95460.41
2022-08-05T18:41:53.758Z,95465.13
2022-08-05T18:44:10.844Z,95459.50
2022-08-05T18:46:41.299Z,95461.13
2022-08-05T18:49:30.728Z,95470.06
2022-08-05T18:52:35.733Z,95466.44
2022-08-05T18:55:10.371Z,95478.19
2022-08-05T18:57:50.209Z,95474.09
2022-08-05T19:00:28.826Z,95475.00
2022-08-05T19:03:04.171Z,95472.34
2022-08-05T19:06:13.369Z,95480.13
2022-08-05T19:08:22.215Z,95477.00
2022-08-05T19:11:04.522Z,95491.41
2022-08-05T19:13:35.874Z,95484.16
2022-08-05T19:16:24.555Z,95489.88
2022-08-05T19:18:53.850Z,95500.25
2022-08-05T19:21:27.595Z,95515.03
2022-08-05T19:24:06.563Z,95536.91
2022-08-05T19:26:36.951Z,95551.59
2022-08-05T19:29:26.736Z,95556.16
2022-08-05T19:32:08.633Z,95562.41
2022-08-05T19:34:39.426Z,95564.13
2022-08-05T19:37:09.942Z,95577.97
2022-08-05T19:39:50.531Z,95596.56
2022-08-05T19:42:34.888Z,95605.97
2022-08-05T19:45:02.916Z,95603.59
2022-08-05T19:47:34.106Z,95603.34
2022-08-05T19:50:01.834Z,95620.19
2022-08-05T19:52:32.479Z,95627.31
2022-08-05T19:55:07.254Z,95630.84
2022-08-05T19:57:49.104Z,95634.38
2022-08-05T20:00:25.098Z,95645.75
2022-08-05T20:02:53.410Z,95655.00
2022-08-05T20:05:24.080Z,95675.84
2022-08-05T20:07:58.844Z,95693.94
2022-08-05T20:10:27.747Z,95698.19
2022-08-05T20:12:56.635Z,95707.38
2022-08-05T20:15:51.779Z,95708.19
2022-08-05T20:18:33.622Z,95706.00
2022-08-05T20:21:01.483Z,95713.84
2022-08-05T20:23:40.737Z,95731.44
2022-08-05T20:26:18.382Z,95729.56
2022-08-05T20:28:48.339Z,95740.69
2022-08-05T20:31:16.643Z,95752.03
2022-08-05T20:33:45.892Z,95758.47
2022-08-05T20:36:16.201Z,95751.16
2022-08-05T20:38:54.007Z,95754.06
2022-08-05T20:41:43.931Z,95766.50
2022-08-05T20:44:17.111Z,95763.41
2022-08-05T20:46:45.695Z,95763.41
2022-08-05T20:49:14.443Z,95765.56
2022-08-05T20:51:46.158Z,95767.44
2022-08-05T20:54:24.755Z,95765.94
2022-08-05T20:56:52.951Z,95779.91
2022-08-05T20:59:27.145Z,95789.41
2022-08-05T21:02:09.063Z,95794.94
2022-08-05T21:04:39.476Z,95792.34
2022-08-05T21:07:08.962Z,95792.69
2022-08-05T21:09:38.387Z,95803.19
2022-08-05T21:12:21.530Z,95809.69
2022-08-05T21:14:54.225Z,95821.06
2022-08-05T21:17:25.620Z,95837.25
2022-08-05T21:19:56.067Z,95855.38
2022-08-05T21:22:26.848Z,95857.63
2022-08-05T21:24:57.514Z,95865.56
2022-08-05T21:27:27.362Z,95858.69
2022-08-05T21:29:56.001Z,95855.69
2022-08-05T21:32:27.235Z,95854.75
2022-08-05T21:35:17.746Z,95849.16
2022-08-05T21:37:52.742Z,95841.44
2022-08-05T21:40:23.356Z,95839.81
2022-08-05T21:42:51.984Z,95824.44
2022-08-05T21:45:24.450Z,95816.94
2022-08-05T21:47:55.797Z,95791.75
2022-08-05T21:50:25.303Z,95788.72
2022-08-05T21:52:52.981Z,95814.56
2022-08-05T21:56:01.478Z,95814.63
2022-08-05T21:58:11.720Z,95847.09
2022-08-05T22:00:40.434Z,95865.72
2022-08-05T22:03:09.768Z,95877.13
2022-08-05T22:05:48.673Z,95882.28
2022-08-05T22:08:22.160Z,95878.34
2022-08-05T22:10:53.575Z,95884.94
2022-08-05T22:14:05.986Z,95881.41
2022-08-05T22:16:41.066Z,95884.56
2022-08-05T22:18:58.503Z,95895.28
2022-08-05T22:21:27.058Z,95911.63
2022-08-05T22:24:40.515Z,95908.53
2022-08-05T22:27:19.360Z,95918.59
2022-08-05T22:29:48.733Z,95921.47
2022-08-05T22:32:23.107Z,95923.88
2022-08-05T22:34:51.805Z,95932.09
2022-08-05T22:37:19.450Z,95933.13
2022-08-05T22:39:50.490Z,95941.34
2022-08-05T22:42:25.397Z,95954.38
2022-08-05T22:44:56.682Z,95958.31
2022-08-05T22:47:29.170Z,95945.97
2022-08-05T22:50:20.849Z,95954.38
2022-08-05T22:52:48.063Z,95955.75
2022-08-05T22:55:18.960Z,95959.28
2022-08-05T22:57:49.060Z,95956.72
2022-08-05T23:00:21.236Z,95957.78
2022-08-05T23:02:50.268Z,95963.50
2022-08-05T23:05:18.990Z,95959.56
2022-08-05T23:07:50.947Z,95963.50
2022-08-05T23:10:20.035Z,95959.34
2022-08-05T23:12:51.496Z,95965.63
2022-08-05T23:15:27.136Z,95965.88
2022-08-05T23:18:02.159Z,95971.91
2022-08-05T23:20:32.123Z,95975.91
2022-08-05T23:23:00.825Z,95987.47
2022-08-05T23:25:54.520Z,95999.66
2022-08-05T23:28:28.594Z,95994.69
2022-08-05T23:31:02.357Z,96008.63
2022-08-05T23:34:04.557Z,96019.50
2022-08-05T23:36:39.728Z,96014.44
2022-08-05T23:39:12.862Z,96005.22
2022-08-05T23:41:48.454Z,95999.44
2022-08-05T23:44:17.396Z,95991.25
2022-08-05T23:46:49.332Z,96002.00
2022-08-05T23:49:23.883Z,96009.19
2022-08-05T23:52:19.635Z,95991.22
2022-08-05T23:54:50.886Z,95978.59
2022-08-05T23:57:19.410Z,95980.25
